sensor_id;sensor_type;location;lat;lon;timestamp;P1;durP1;ratioP1;P2;durP2;ratioP2
13051;SDS011;6592;47.484;9.726;2023-03-11T00:00:29;4.38;;;0.90;;
13051;SDS011;6592;47.484;9.726;2023-03-11T00:03:00;2.45;;;1.05;;
13051;SDS011;6592;47.484;9.726;2023-03-11T00:05:34;1.80;;;0.90;;
13051;SDS011;6592;47.484;9.726;2023-03-11T00:08:04;3.00;;;0.90;;
13051;SDS011;6592;47.484;9.726;2023-03-11T00:10:34;2.40;;;1.00;;
13051;SDS011;6592;47.484;9.726;2023-03-11T00:13:04;2.60;;;0.90;;
13051;SDS011;6592;47.484;9.726;2023-03-11T00:15:36;2.35;;;0.80;;
13051;SDS011;6592;47.484;9.726;2023-03-11T00:18:06;1.70;;;0.85;;
13051;SDS011;6592;47.484;9.726;2023-03-11T00:20:35;2.03;;;1.00;;
13051;SDS011;6592;47.484;9.726;2023-03-11T00:23:06;2.30;;;1.20;;
13051;SDS011;6592;47.484;9.726;2023-03-11T00:25:35;2.20;;;0.90;;
13051;SDS011;6592;47.484;9.726;2023-03-11T00:28:05;2.00;;;0.82;;
13051;SDS011;6592;47.484;9.726;2023-03-11T00:30:37;2.55;;;1.00;;
13051;SDS011;6592;47.484;9.726;2023-03-11T00:33:07;2.53;;;1.10;;
13051;SDS011;6592;47.484;9.726;2023-03-11T00:35:35;3.67;;;1.00;;
13051;SDS011;6592;47.484;9.726;2023-03-11T00:38:04;4.15;;;1.20;;
13051;SDS011;6592;47.484;9.726;2023-03-11T00:40:34;2.85;;;1.20;;
13051;SDS011;6592;47.484;9.726;2023-03-11T00:43:02;2.35;;;1.00;;
13051;SDS011;6592;47.484;9.726;2023-03-11T00:45:31;3.17;;;1.00;;
13051;SDS011;6592;47.484;9.726;2023-03-11T00:48:01;1.67;;;0.88;;
13051;SDS011;6592;47.484;9.726;2023-03-11T00:50:30;2.33;;;1.02;;
13051;SDS011;6592;47.484;9.726;2023-03-11T00:53:00;1.73;;;0.90;;
13051;SDS011;6592;47.484;9.726;2023-03-11T00:55:30;1.90;;;1.00;;
13051;SDS011;6592;47.484;9.726;2023-03-11T00:57:59;1.60;;;0.75;;
13051;SDS011;6592;47.484;9.726;2023-03-11T01:00:29;2.47;;;1.27;;
13051;SDS011;6592;47.484;9.726;2023-03-11T01:02:58;2.25;;;0.95;;
13051;SDS011;6592;47.484;9.726;2023-03-11T01:05:29;5.40;;;1.20;;
13051;SDS011;6592;47.484;9.726;2023-03-11T01:10:27;2.60;;;1.00;;
13051;SDS011;6592;47.484;9.726;2023-03-11T01:12:56;3.63;;;1.20;;
13051;SDS011;6592;47.484;9.726;2023-03-11T01:15:25;2.22;;;1.08;;
13051;SDS011;6592;47.484;9.726;2023-03-11T01:17:55;2.10;;;1.03;;
13051;SDS011;6592;47.484;9.726;2023-03-11T01:20:23;2.58;;;1.25;;
13051;SDS011;6592;47.484;9.726;2023-03-11T01:22:53;2.30;;;1.17;;
13051;SDS011;6592;47.484;9.726;2023-03-11T01:25:22;3.35;;;1.10;;
13051;SDS011;6592;47.484;9.726;2023-03-11T01:27:51;3.65;;;1.20;;
13051;SDS011;6592;47.484;9.726;2023-03-11T01:30:19;2.00;;;0.93;;
13051;SDS011;6592;47.484;9.726;2023-03-11T01:32:49;2.50;;;1.20;;
13051;SDS011;6592;47.484;9.726;2023-03-11T01:35:19;2.85;;;1.25;;
13051;SDS011;6592;47.484;9.726;2023-03-11T01:37:50;3.05;;;1.00;;
13051;SDS011;6592;47.484;9.726;2023-03-11T01:40:22;2.83;;;1.00;;
13051;SDS011;6592;47.484;9.726;2023-03-11T01:42:53;2.38;;;1.33;;
13051;SDS011;6592;47.484;9.726;2023-03-11T01:48:28;2.42;;;1.00;;
13051;SDS011;6592;47.484;9.726;2023-03-11T01:50:56;4.38;;;0.93;;
13051;SDS011;6592;47.484;9.726;2023-03-11T01:53:26;3.45;;;1.35;;
13051;SDS011;6592;47.484;9.726;2023-03-11T01:55:56;2.95;;;1.20;;
13051;SDS011;6592;47.484;9.726;2023-03-11T01:58:25;3.15;;;1.17;;
13051;SDS011;6592;47.484;9.726;2023-03-11T02:00:58;2.28;;;1.20;;
13051;SDS011;6592;47.484;9.726;2023-03-11T02:03:29;3.35;;;1.35;;
13051;SDS011;6592;47.484;9.726;2023-03-11T02:05:59;4.00;;;1.10;;
13051;SDS011;6592;47.484;9.726;2023-03-11T02:08:29;3.65;;;1.13;;
13051;SDS011;6592;47.484;9.726;2023-03-11T02:11:01;2.63;;;1.20;;
13051;SDS011;6592;47.484;9.726;2023-03-11T02:13:31;2.15;;;1.13;;
13051;SDS011;6592;47.484;9.726;2023-03-11T02:16:02;3.10;;;1.25;;
13051;SDS011;6592;47.484;9.726;2023-03-11T02:18:31;2.30;;;1.13;;
13051;SDS011;6592;47.484;9.726;2023-03-11T02:21:02;2.90;;;1.40;;
13051;SDS011;6592;47.484;9.726;2023-03-11T02:23:38;2.40;;;1.13;;
13051;SDS011;6592;47.484;9.726;2023-03-11T02:26:14;3.08;;;1.33;;
13051;SDS011;6592;47.484;9.726;2023-03-11T02:28:49;3.15;;;1.40;;
13051;SDS011;6592;47.484;9.726;2023-03-11T02:31:19;3.75;;;1.48;;
13051;SDS011;6592;47.484;9.726;2023-03-11T02:33:48;3.50;;;1.60;;
13051;SDS011;6592;47.484;9.726;2023-03-11T02:36:29;3.15;;;1.50;;
13051;SDS011;6592;47.484;9.726;2023-03-11T02:38:58;4.35;;;1.50;;
13051;SDS011;6592;47.484;9.726;2023-03-11T02:41:27;3.80;;;1.30;;
13051;SDS011;6592;47.484;9.726;2023-03-11T02:43:58;3.08;;;1.38;;
13051;SDS011;6592;47.484;9.726;2023-03-11T02:46:28;3.88;;;1.58;;
13051;SDS011;6592;47.484;9.726;2023-03-11T02:48:56;2.65;;;1.40;;
13051;SDS011;6592;47.484;9.726;2023-03-11T02:51:26;3.25;;;1.50;;
13051;SDS011;6592;47.484;9.726;2023-03-11T02:53:55;3.72;;;1.42;;
13051;SDS011;6592;47.484;9.726;2023-03-11T02:56:27;4.03;;;1.73;;
13051;SDS011;6592;47.484;9.726;2023-03-11T02:58:55;4.15;;;1.70;;
13051;SDS011;6592;47.484;9.726;2023-03-11T03:01:25;4.10;;;1.80;;
13051;SDS011;6592;47.484;9.726;2023-03-11T03:03:53;3.33;;;1.60;;
13051;SDS011;6592;47.484;9.726;2023-03-11T03:06:22;2.88;;;1.58;;
13051;SDS011;6592;47.484;9.726;2023-03-11T03:08:50;3.53;;;1.63;;
13051;SDS011;6592;47.484;9.726;2023-03-11T03:11:18;3.92;;;1.80;;
13051;SDS011;6592;47.484;9.726;2023-03-11T03:13:46;3.42;;;1.67;;
13051;SDS011;6592;47.484;9.726;2023-03-11T03:16:16;4.00;;;1.67;;
13051;SDS011;6592;47.484;9.726;2023-03-11T03:18:44;4.45;;;1.90;;
13051;SDS011;6592;47.484;9.726;2023-03-11T03:21:12;4.03;;;1.70;;
13051;SDS011;6592;47.484;9.726;2023-03-11T03:23:41;3.75;;;1.83;;
13051;SDS011;6592;47.484;9.726;2023-03-11T03:26:11;3.50;;;1.70;;
13051;SDS011;6592;47.484;9.726;2023-03-11T03:28:40;4.38;;;1.95;;
13051;SDS011;6592;47.484;9.726;2023-03-11T03:31:09;3.22;;;1.80;;
13051;SDS011;6592;47.484;9.726;2023-03-11T03:33:38;4.55;;;2.20;;
13051;SDS011;6592;47.484;9.726;2023-03-11T03:36:07;4.60;;;1.80;;
13051;SDS011;6592;47.484;9.726;2023-03-11T03:38:38;5.25;;;2.13;;
13051;SDS011;6592;47.484;9.726;2023-03-11T03:41:06;4.43;;;2.05;;
13051;SDS011;6592;47.484;9.726;2023-03-11T03:43:35;4.72;;;1.95;;
13051;SDS011;6592;47.484;9.726;2023-03-11T03:46:03;4.70;;;2.00;;
13051;SDS011;6592;47.484;9.726;2023-03-11T03:48:32;3.85;;;1.90;;
13051;SDS011;6592;47.484;9.726;2023-03-11T03:51:05;4.03;;;1.90;;
13051;SDS011;6592;47.484;9.726;2023-03-11T03:53:35;4.45;;;2.03;;
13051;SDS011;6592;47.484;9.726;2023-03-11T03:56:04;4.65;;;2.05;;
13051;SDS011;6592;47.484;9.726;2023-03-11T03:58:33;3.95;;;1.95;;
13051;SDS011;6592;47.484;9.726;2023-03-11T04:01:01;4.22;;;2.05;;
13051;SDS011;6592;47.484;9.726;2023-03-11T04:03:30;4.78;;;2.30;;
13051;SDS011;6592;47.484;9.726;2023-03-11T04:06:08;3.40;;;1.67;;
13051;SDS011;6592;47.484;9.726;2023-03-11T04:08:37;3.75;;;1.90;;
13051;SDS011;6592;47.484;9.726;2023-03-11T04:11:06;4.22;;;1.98;;
13051;SDS011;6592;47.484;9.726;2023-03-11T04:13:34;4.07;;;1.80;;
13051;SDS011;6592;47.484;9.726;2023-03-11T04:16:03;7.18;;;2.25;;
13051;SDS011;6592;47.484;9.726;2023-03-11T04:18:32;4.68;;;2.10;;
13051;SDS011;6592;47.484;9.726;2023-03-11T04:21:03;3.90;;;1.95;;
13051;SDS011;6592;47.484;9.726;2023-03-11T04:23:33;3.80;;;1.73;;
13051;SDS011;6592;47.484;9.726;2023-03-11T04:26:01;3.50;;;1.67;;
13051;SDS011;6592;47.484;9.726;2023-03-11T04:28:30;4.65;;;1.90;;
13051;SDS011;6592;47.484;9.726;2023-03-11T04:30:58;4.47;;;1.73;;
13051;SDS011;6592;47.484;9.726;2023-03-11T04:33:27;5.13;;;2.08;;
13051;SDS011;6592;47.484;9.726;2023-03-11T04:35:55;4.40;;;1.88;;
13051;SDS011;6592;47.484;9.726;2023-03-11T04:38:24;4.90;;;1.70;;
13051;SDS011;6592;47.484;9.726;2023-03-11T04:40:54;4.03;;;1.70;;
13051;SDS011;6592;47.484;9.726;2023-03-11T04:43:26;4.10;;;1.88;;
13051;SDS011;6592;47.484;9.726;2023-03-11T04:45:55;3.10;;;1.50;;
13051;SDS011;6592;47.484;9.726;2023-03-11T04:48:23;6.15;;;2.10;;
13051;SDS011;6592;47.484;9.726;2023-03-11T04:50:53;4.57;;;1.90;;
13051;SDS011;6592;47.484;9.726;2023-03-11T04:53:22;3.13;;;1.65;;
13051;SDS011;6592;47.484;9.726;2023-03-11T04:55:51;4.13;;;2.08;;
13051;SDS011;6592;47.484;9.726;2023-03-11T04:58:21;5.30;;;2.20;;
13051;SDS011;6592;47.484;9.726;2023-03-11T05:00:50;5.10;;;1.90;;
13051;SDS011;6592;47.484;9.726;2023-03-11T05:03:19;3.70;;;1.70;;
13051;SDS011;6592;47.484;9.726;2023-03-11T05:05:48;3.45;;;1.73;;
13051;SDS011;6592;47.484;9.726;2023-03-11T05:08:18;5.15;;;2.20;;
13051;SDS011;6592;47.484;9.726;2023-03-11T05:10:46;5.40;;;2.25;;
13051;SDS011;6592;47.484;9.726;2023-03-11T05:13:15;4.38;;;2.10;;
13051;SDS011;6592;47.484;9.726;2023-03-11T05:15:45;4.30;;;1.90;;
13051;SDS011;6592;47.484;9.726;2023-03-11T05:18:14;4.43;;;1.98;;
13051;SDS011;6592;47.484;9.726;2023-03-11T05:20:42;4.90;;;2.30;;
13051;SDS011;6592;47.484;9.726;2023-03-11T05:23:11;5.15;;;2.33;;
13051;SDS011;6592;47.484;9.726;2023-03-11T05:25:40;4.60;;;2.25;;
13051;SDS011;6592;47.484;9.726;2023-03-11T05:28:08;6.63;;;2.53;;
13051;SDS011;6592;47.484;9.726;2023-03-11T05:30:37;4.78;;;2.20;;
13051;SDS011;6592;47.484;9.726;2023-03-11T05:33:07;9.20;;;2.30;;
13051;SDS011;6592;47.484;9.726;2023-03-11T05:35:35;4.38;;;1.77;;
13051;SDS011;6592;47.484;9.726;2023-03-11T05:38:04;5.53;;;2.22;;
13051;SDS011;6592;47.484;9.726;2023-03-11T05:40:33;4.85;;;2.00;;
13051;SDS011;6592;47.484;9.726;2023-03-11T05:43:01;5.00;;;2.20;;
13051;SDS011;6592;47.484;9.726;2023-03-11T05:45:30;4.67;;;2.20;;
13051;SDS011;6592;47.484;9.726;2023-03-11T05:47:58;5.97;;;2.20;;
13051;SDS011;6592;47.484;9.726;2023-03-11T05:50:28;4.73;;;2.07;;
13051;SDS011;6592;47.484;9.726;2023-03-11T05:52:56;6.03;;;2.20;;
13051;SDS011;6592;47.484;9.726;2023-03-11T05:55:24;5.97;;;2.20;;
13051;SDS011;6592;47.484;9.726;2023-03-11T05:57:52;5.10;;;2.03;;
13051;SDS011;6592;47.484;9.726;2023-03-11T06:00:21;4.70;;;1.73;;
13051;SDS011;6592;47.484;9.726;2023-03-11T06:02:49;4.37;;;1.70;;
13051;SDS011;6592;47.484;9.726;2023-03-11T06:05:17;5.37;;;2.10;;
13051;SDS011;6592;47.484;9.726;2023-03-11T06:07:47;4.97;;;1.87;;
13051;SDS011;6592;47.484;9.726;2023-03-11T06:10:16;4.93;;;1.97;;
13051;SDS011;6592;47.484;9.726;2023-03-11T06:12:44;5.87;;;2.10;;
13051;SDS011;6592;47.484;9.726;2023-03-11T06:15:12;4.40;;;2.10;;
13051;SDS011;6592;47.484;9.726;2023-03-11T06:17:41;5.03;;;1.87;;
13051;SDS011;6592;47.484;9.726;2023-03-11T06:20:09;6.07;;;1.70;;
13051;SDS011;6592;47.484;9.726;2023-03-11T06:22:38;5.30;;;2.20;;
13051;SDS011;6592;47.484;9.726;2023-03-11T06:25:08;5.63;;;2.70;;
13051;SDS011;6592;47.484;9.726;2023-03-11T06:27:38;7.47;;;2.55;;
13051;SDS011;6592;47.484;9.726;2023-03-11T06:30:06;7.90;;;2.40;;
13051;SDS011;6592;47.484;9.726;2023-03-11T06:32:36;6.30;;;2.50;;
13051;SDS011;6592;47.484;9.726;2023-03-11T06:35:04;7.17;;;2.67;;
13051;SDS011;6592;47.484;9.726;2023-03-11T06:37:34;5.87;;;2.47;;
13051;SDS011;6592;47.484;9.726;2023-03-11T06:40:03;6.03;;;2.40;;
13051;SDS011;6592;47.484;9.726;2023-03-11T06:42:34;9.37;;;2.43;;
13051;SDS011;6592;47.484;9.726;2023-03-11T06:45:03;8.17;;;3.10;;
13051;SDS011;6592;47.484;9.726;2023-03-11T06:47:32;7.83;;;3.00;;
13051;SDS011;6592;47.484;9.726;2023-03-11T06:50:00;7.30;;;3.27;;
13051;SDS011;6592;47.484;9.726;2023-03-11T06:55:00;5.73;;;2.50;;
13051;SDS011;6592;47.484;9.726;2023-03-11T06:57:29;5.67;;;2.40;;
13051;SDS011;6592;47.484;9.726;2023-03-11T06:59:59;4.17;;;2.20;;
13051;SDS011;6592;47.484;9.726;2023-03-11T07:02:27;6.00;;;2.67;;
13051;SDS011;6592;47.484;9.726;2023-03-11T07:04:56;6.23;;;2.50;;
13051;SDS011;6592;47.484;9.726;2023-03-11T07:07:24;6.77;;;2.77;;
13051;SDS011;6592;47.484;9.726;2023-03-11T07:09:53;7.50;;;3.20;;
13051;SDS011;6592;47.484;9.726;2023-03-11T07:12:23;7.67;;;2.90;;
13051;SDS011;6592;47.484;9.726;2023-03-11T07:14:53;7.22;;;2.97;;
13051;SDS011;6592;47.484;9.726;2023-03-11T07:17:24;8.88;;;3.47;;
13051;SDS011;6592;47.484;9.726;2023-03-11T07:19:53;7.90;;;3.38;;
13051;SDS011;6592;47.484;9.726;2023-03-11T07:22:22;9.23;;;3.50;;
13051;SDS011;6592;47.484;9.726;2023-03-11T07:24:50;6.75;;;2.92;;
13051;SDS011;6592;47.484;9.726;2023-03-11T07:27:19;8.37;;;3.87;;
13051;SDS011;6592;47.484;9.726;2023-03-11T07:29:48;10.35;;;4.28;;
13051;SDS011;6592;47.484;9.726;2023-03-11T07:32:17;8.18;;;4.13;;
13051;SDS011;6592;47.484;9.726;2023-03-11T07:34:46;10.60;;;4.68;;
13051;SDS011;6592;47.484;9.726;2023-03-11T07:37:15;13.88;;;4.90;;
13051;SDS011;6592;47.484;9.726;2023-03-11T07:39:43;10.10;;;4.35;;
13051;SDS011;6592;47.484;9.726;2023-03-11T07:42:12;8.02;;;4.03;;
13051;SDS011;6592;47.484;9.726;2023-03-11T07:44:40;9.40;;;3.92;;
13051;SDS011;6592;47.484;9.726;2023-03-11T07:47:09;10.18;;;4.20;;
13051;SDS011;6592;47.484;9.726;2023-03-11T07:49:38;10.18;;;4.35;;
13051;SDS011;6592;47.484;9.726;2023-03-11T07:52:07;7.65;;;3.80;;
13051;SDS011;6592;47.484;9.726;2023-03-11T07:54:36;7.28;;;3.35;;
13051;SDS011;6592;47.484;9.726;2023-03-11T07:57:05;8.45;;;3.15;;
13051;SDS011;6592;47.484;9.726;2023-03-11T07:59:38;4.80;;;2.28;;
13051;SDS011;6592;47.484;9.726;2023-03-11T08:02:08;6.97;;;3.05;;
13051;SDS011;6592;47.484;9.726;2023-03-11T08:04:37;5.72;;;2.42;;
13051;SDS011;6592;47.484;9.726;2023-03-11T08:07:05;6.88;;;3.00;;
13051;SDS011;6592;47.484;9.726;2023-03-11T08:09:35;5.75;;;2.63;;
13051;SDS011;6592;47.484;9.726;2023-03-11T08:12:04;6.65;;;3.65;;
13051;SDS011;6592;47.484;9.726;2023-03-11T08:14:33;8.48;;;3.63;;
13051;SDS011;6592;47.484;9.726;2023-03-11T08:17:02;6.53;;;3.10;;
13051;SDS011;6592;47.484;9.726;2023-03-11T08:19:31;9.15;;;3.50;;
13051;SDS011;6592;47.484;9.726;2023-03-11T08:22:00;9.00;;;4.25;;
13051;SDS011;6592;47.484;9.726;2023-03-11T08:24:30;10.77;;;3.65;;
13051;SDS011;6592;47.484;9.726;2023-03-11T08:26:59;5.25;;;2.60;;
13051;SDS011;6592;47.484;9.726;2023-03-11T08:29:28;7.07;;;2.72;;
13051;SDS011;6592;47.484;9.726;2023-03-11T08:31:56;7.10;;;2.58;;
13051;SDS011;6592;47.484;9.726;2023-03-11T08:34:25;5.55;;;2.72;;
13051;SDS011;6592;47.484;9.726;2023-03-11T08:36:54;5.80;;;2.67;;
13051;SDS011;6592;47.484;9.726;2023-03-11T08:39:22;5.85;;;2.75;;
13051;SDS011;6592;47.484;9.726;2023-03-11T08:41:52;5.47;;;2.78;;
13051;SDS011;6592;47.484;9.726;2023-03-11T08:44:20;6.43;;;2.67;;
13051;SDS011;6592;47.484;9.726;2023-03-11T08:46:48;5.93;;;2.92;;
13051;SDS011;6592;47.484;9.726;2023-03-11T08:49:17;6.78;;;3.17;;
13051;SDS011;6592;47.484;9.726;2023-03-11T08:51:45;6.57;;;2.80;;
13051;SDS011;6592;47.484;9.726;2023-03-11T08:54:13;6.85;;;2.72;;
13051;SDS011;6592;47.484;9.726;2023-03-11T08:56:42;6.13;;;3.10;;
13051;SDS011;6592;47.484;9.726;2023-03-11T08:59:11;7.30;;;2.80;;
13051;SDS011;6592;47.484;9.726;2023-03-11T09:01:40;4.95;;;2.58;;
13051;SDS011;6592;47.484;9.726;2023-03-11T09:04:08;7.22;;;2.75;;
13051;SDS011;6592;47.484;9.726;2023-03-11T09:06:40;7.28;;;3.00;;
13051;SDS011;6592;47.484;9.726;2023-03-11T09:09:09;3.78;;;1.88;;
13051;SDS011;6592;47.484;9.726;2023-03-11T09:11:38;3.85;;;1.70;;
13051;SDS011;6592;47.484;9.726;2023-03-11T09:14:07;3.00;;;1.20;;
13051;SDS011;6592;47.484;9.726;2023-03-11T09:16:36;2.88;;;1.23;;
13051;SDS011;6592;47.484;9.726;2023-03-11T09:19:05;2.05;;;1.00;;
13051;SDS011;6592;47.484;9.726;2023-03-11T09:21:33;4.00;;;1.20;;
13051;SDS011;6592;47.484;9.726;2023-03-11T09:24:02;3.15;;;1.27;;
13051;SDS011;6592;47.484;9.726;2023-03-11T09:26:31;2.30;;;1.20;;
13051;SDS011;6592;47.484;9.726;2023-03-11T09:29:00;3.03;;;0.90;;
13051;SDS011;6592;47.484;9.726;2023-03-11T09:31:28;2.35;;;1.10;;
13051;SDS011;6592;47.484;9.726;2023-03-11T09:33:57;4.60;;;1.35;;
13051;SDS011;6592;47.484;9.726;2023-03-11T09:36:26;3.30;;;1.30;;
13051;SDS011;6592;47.484;9.726;2023-03-11T09:38:54;2.92;;;1.38;;
13051;SDS011;6592;47.484;9.726;2023-03-11T09:41:27;3.75;;;1.48;;
13051;SDS011;6592;47.484;9.726;2023-03-11T09:44:11;4.30;;;1.27;;
13051;SDS011;6592;47.484;9.726;2023-03-11T09:49:56;2.35;;;0.88;;
13051;SDS011;6592;47.484;9.726;2023-03-11T09:52:39;2.25;;;0.90;;
13051;SDS011;6592;47.484;9.726;2023-03-11T09:55:20;2.47;;;0.80;;
13051;SDS011;6592;47.484;9.726;2023-03-11T09:57:58;4.95;;;0.95;;
13051;SDS011;6592;47.484;9.726;2023-03-11T10:00:30;3.55;;;0.88;;
13051;SDS011;6592;47.484;9.726;2023-03-11T10:02:59;1.98;;;0.75;;
13051;SDS011;6592;47.484;9.726;2023-03-11T10:05:30;2.78;;;0.82;;
13051;SDS011;6592;47.484;9.726;2023-03-11T10:07:59;2.00;;;0.75;;
13051;SDS011;6592;47.484;9.726;2023-03-11T10:10:31;3.40;;;0.80;;
13051;SDS011;6592;47.484;9.726;2023-03-11T10:13:06;3.00;;;0.95;;
13051;SDS011;6592;47.484;9.726;2023-03-11T10:15:41;5.07;;;1.10;;
13051;SDS011;6592;47.484;9.726;2023-03-11T10:21:17;2.78;;;0.90;;
13051;SDS011;6592;47.484;9.726;2023-03-11T10:24:03;2.88;;;1.00;;
13051;SDS011;6592;47.484;9.726;2023-03-11T10:26:44;3.15;;;1.13;;
13051;SDS011;6592;47.484;9.726;2023-03-11T10:29:17;1.80;;;0.93;;
13051;SDS011;6592;47.484;9.726;2023-03-11T10:31:50;2.55;;;1.13;;
13051;SDS011;6592;47.484;9.726;2023-03-11T10:34:26;3.90;;;1.00;;
13051;SDS011;6592;47.484;9.726;2023-03-11T10:37:02;3.67;;;1.08;;
13051;SDS011;6592;47.484;9.726;2023-03-11T10:39:37;1.77;;;0.88;;
13051;SDS011;6592;47.484;9.726;2023-03-11T10:42:10;1.83;;;0.95;;
13051;SDS011;6592;47.484;9.726;2023-03-11T10:44:41;2.80;;;0.98;;
13051;SDS011;6592;47.484;9.726;2023-03-11T10:47:12;2.90;;;1.20;;
13051;SDS011;6592;47.484;9.726;2023-03-11T10:49:44;2.67;;;0.90;;
13051;SDS011;6592;47.484;9.726;2023-03-11T10:52:14;2.58;;;0.88;;
13051;SDS011;6592;47.484;9.726;2023-03-11T10:54:43;2.40;;;0.95;;
13051;SDS011;6592;47.484;9.726;2023-03-11T10:57:20;3.25;;;0.90;;
13051;SDS011;6592;47.484;9.726;2023-03-11T10:59:51;2.30;;;1.17;;
13051;SDS011;6592;47.484;9.726;2023-03-11T11:02:22;2.42;;;1.00;;
13051;SDS011;6592;47.484;9.726;2023-03-11T11:07:36;3.28;;;0.82;;
13051;SDS011;6592;47.484;9.726;2023-03-11T11:10:13;1.80;;;1.02;;
13051;SDS011;6592;47.484;9.726;2023-03-11T11:12:51;2.42;;;1.08;;
13051;SDS011;6592;47.484;9.726;2023-03-11T11:15:25;4.10;;;1.10;;
13051;SDS011;6592;47.484;9.726;2023-03-11T11:17:56;3.63;;;1.00;;
13051;SDS011;6592;47.484;9.726;2023-03-11T11:20:26;2.20;;;1.00;;
13051;SDS011;6592;47.484;9.726;2023-03-11T11:22:58;1.98;;;1.13;;
13051;SDS011;6592;47.484;9.726;2023-03-11T11:27:58;3.47;;;1.35;;
13051;SDS011;6592;47.484;9.726;2023-03-11T11:30:30;2.30;;;1.20;;
13051;SDS011;6592;47.484;9.726;2023-03-11T11:33:19;4.72;;;1.30;;
13051;SDS011;6592;47.484;9.726;2023-03-11T11:35:50;4.10;;;1.25;;
13051;SDS011;6592;47.484;9.726;2023-03-11T11:38:25;2.35;;;0.95;;
13051;SDS011;6592;47.484;9.726;2023-03-11T11:40:55;3.30;;;1.27;;
13051;SDS011;6592;47.484;9.726;2023-03-11T11:43:33;2.45;;;1.17;;
13051;SDS011;6592;47.484;9.726;2023-03-11T11:46:11;3.00;;;0.95;;
13051;SDS011;6592;47.484;9.726;2023-03-11T11:48:49;2.70;;;1.13;;
13051;SDS011;6592;47.484;9.726;2023-03-11T11:51:24;4.85;;;1.30;;
13051;SDS011;6592;47.484;9.726;2023-03-11T11:53:58;2.20;;;1.10;;
13051;SDS011;6592;47.484;9.726;2023-03-11T11:56:30;2.30;;;0.80;;
13051;SDS011;6592;47.484;9.726;2023-03-11T11:58:58;1.77;;;0.98;;
13051;SDS011;6592;47.484;9.726;2023-03-11T12:01:34;2.47;;;0.93;;
13051;SDS011;6592;47.484;9.726;2023-03-11T12:07:00;2.80;;;1.00;;
13051;SDS011;6592;47.484;9.726;2023-03-11T12:09:37;4.00;;;1.15;;
13051;SDS011;6592;47.484;9.726;2023-03-11T12:12:16;2.55;;;1.10;;
13051;SDS011;6592;47.484;9.726;2023-03-11T12:14:54;3.40;;;1.00;;
13051;SDS011;6592;47.484;9.726;2023-03-11T12:17:28;2.10;;;0.93;;
13051;SDS011;6592;47.484;9.726;2023-03-11T12:19:59;1.77;;;0.90;;
13051;SDS011;6592;47.484;9.726;2023-03-11T12:25:27;4.80;;;1.00;;
13051;SDS011;6592;47.484;9.726;2023-03-11T12:28:02;2.67;;;0.90;;
13051;SDS011;6592;47.484;9.726;2023-03-11T12:30:41;2.92;;;0.88;;
13051;SDS011;6592;47.484;9.726;2023-03-11T12:33:12;1.40;;;0.77;;
13051;SDS011;6592;47.484;9.726;2023-03-11T12:35:47;2.55;;;1.00;;
13051;SDS011;6592;47.484;9.726;2023-03-11T12:38:20;2.22;;;0.90;;
13051;SDS011;6592;47.484;9.726;2023-03-11T12:41:02;2.60;;;1.08;;
13051;SDS011;6592;47.484;9.726;2023-03-11T12:49:28;1.73;;;0.83;;
13051;SDS011;6592;47.484;9.726;2023-03-11T12:52:15;3.05;;;0.95;;
13051;SDS011;6592;47.484;9.726;2023-03-11T12:58:18;3.03;;;1.20;;
13051;SDS011;6592;47.484;9.726;2023-03-11T13:01:05;2.10;;;1.00;;
13051;SDS011;6592;47.484;9.726;2023-03-11T13:06:21;3.17;;;1.27;;
13051;SDS011;6592;47.484;9.726;2023-03-11T13:09:01;2.72;;;1.20;;
13051;SDS011;6592;47.484;9.726;2023-03-11T13:11:37;1.98;;;1.10;;
13051;SDS011;6592;47.484;9.726;2023-03-11T13:14:15;2.67;;;1.17;;
13051;SDS011;6592;47.484;9.726;2023-03-11T13:16:56;2.83;;;1.00;;
13051;SDS011;6592;47.484;9.726;2023-03-11T13:19:47;3.05;;;1.20;;
13051;SDS011;6592;47.484;9.726;2023-03-11T13:25:32;3.17;;;1.35;;
13051;SDS011;6592;47.484;9.726;2023-03-11T13:31:15;2.30;;;1.10;;
13051;SDS011;6592;47.484;9.726;2023-03-11T13:33:52;3.50;;;1.20;;
13051;SDS011;6592;47.484;9.726;2023-03-11T13:39:21;3.60;;;1.27;;
13051;SDS011;6592;47.484;9.726;2023-03-11T13:42:13;1.90;;;1.10;;
13051;SDS011;6592;47.484;9.726;2023-03-11T13:44:46;3.58;;;1.13;;
13051;SDS011;6592;47.484;9.726;2023-03-11T13:47:17;3.67;;;1.45;;
13051;SDS011;6592;47.484;9.726;2023-03-11T13:49:49;3.22;;;1.30;;
13051;SDS011;6592;47.484;9.726;2023-03-11T13:52:23;2.15;;;1.10;;
13051;SDS011;6592;47.484;9.726;2023-03-11T13:54:54;2.83;;;1.10;;
13051;SDS011;6592;47.484;9.726;2023-03-11T13:57:28;2.85;;;1.35;;
13051;SDS011;6592;47.484;9.726;2023-03-11T14:00:02;3.17;;;1.20;;
13051;SDS011;6592;47.484;9.726;2023-03-11T14:02:43;3.10;;;1.10;;
13051;SDS011;6592;47.484;9.726;2023-03-11T14:05:14;1.50;;;0.70;;
13051;SDS011;6592;47.484;9.726;2023-03-11T14:07:44;2.42;;;0.90;;
13051;SDS011;6592;47.484;9.726;2023-03-11T14:10:16;1.77;;;0.90;;
13051;SDS011;6592;47.484;9.726;2023-03-11T14:12:45;1.70;;;0.80;;
13051;SDS011;6592;47.484;9.726;2023-03-11T14:15:15;2.63;;;1.05;;
13051;SDS011;6592;47.484;9.726;2023-03-11T14:17:48;2.00;;;0.90;;
13051;SDS011;6592;47.484;9.726;2023-03-11T14:20:18;3.50;;;0.90;;
13051;SDS011;6592;47.484;9.726;2023-03-11T14:22:50;2.38;;;0.90;;
13051;SDS011;6592;47.484;9.726;2023-03-11T14:25:21;1.80;;;0.90;;
13051;SDS011;6592;47.484;9.726;2023-03-11T14:27:52;5.30;;;0.93;;
13051;SDS011;6592;47.484;9.726;2023-03-11T14:30:23;3.50;;;1.00;;
13051;SDS011;6592;47.484;9.726;2023-03-11T14:33:01;2.47;;;1.05;;
13051;SDS011;6592;47.484;9.726;2023-03-11T14:35:31;2.22;;;1.08;;
13051;SDS011;6592;47.484;9.726;2023-03-11T14:38:00;3.60;;;1.17;;
13051;SDS011;6592;47.484;9.726;2023-03-11T14:40:29;2.55;;;1.00;;
13051;SDS011;6592;47.484;9.726;2023-03-11T14:42:59;1.97;;;1.00;;
13051;SDS011;6592;47.484;9.726;2023-03-11T14:45:30;1.85;;;1.00;;
13051;SDS011;6592;47.484;9.726;2023-03-11T14:48:04;2.83;;;1.13;;
13051;SDS011;6592;47.484;9.726;2023-03-11T14:50:36;2.55;;;1.17;;
13051;SDS011;6592;47.484;9.726;2023-03-11T14:53:05;2.72;;;1.20;;
13051;SDS011;6592;47.484;9.726;2023-03-11T14:55:40;1.88;;;0.90;;
13051;SDS011;6592;47.484;9.726;2023-03-11T14:58:18;3.20;;;1.08;;
13051;SDS011;6592;47.484;9.726;2023-03-11T15:00:52;2.58;;;1.35;;
13051;SDS011;6592;47.484;9.726;2023-03-11T15:03:25;2.30;;;1.05;;
13051;SDS011;6592;47.484;9.726;2023-03-11T15:05:57;2.85;;;1.33;;
13051;SDS011;6592;47.484;9.726;2023-03-11T15:11:17;2.92;;;1.13;;
13051;SDS011;6592;47.484;9.726;2023-03-11T15:13:48;3.00;;;1.60;;
13051;SDS011;6592;47.484;9.726;2023-03-11T15:16:21;3.97;;;1.60;;
13051;SDS011;6592;47.484;9.726;2023-03-11T15:18:59;4.93;;;1.63;;
13051;SDS011;6592;47.484;9.726;2023-03-11T15:21:28;5.13;;;1.73;;
13051;SDS011;6592;47.484;9.726;2023-03-11T15:23:58;5.15;;;1.95;;
13051;SDS011;6592;47.484;9.726;2023-03-11T15:26:31;3.42;;;1.48;;
13051;SDS011;6592;47.484;9.726;2023-03-11T15:29:10;2.70;;;1.30;;
13051;SDS011;6592;47.484;9.726;2023-03-11T15:31:42;3.33;;;1.40;;
13051;SDS011;6592;47.484;9.726;2023-03-11T15:34:24;4.65;;;1.80;;
13051;SDS011;6592;47.484;9.726;2023-03-11T15:36:59;2.72;;;1.23;;
13051;SDS011;6592;47.484;9.726;2023-03-11T15:39:43;3.30;;;1.30;;
13051;SDS011;6592;47.484;9.726;2023-03-11T15:42:14;2.38;;;1.17;;
13051;SDS011;6592;47.484;9.726;2023-03-11T15:44:55;3.10;;;1.33;;
13051;SDS011;6592;47.484;9.726;2023-03-11T15:47:28;2.75;;;1.20;;
13051;SDS011;6592;47.484;9.726;2023-03-11T15:49:58;2.10;;;1.02;;
13051;SDS011;6592;47.484;9.726;2023-03-11T15:52:29;2.13;;;1.10;;
13051;SDS011;6592;47.484;9.726;2023-03-11T15:54:58;2.83;;;1.20;;
13051;SDS011;6592;47.484;9.726;2023-03-11T15:57:26;2.72;;;1.00;;
13051;SDS011;6592;47.484;9.726;2023-03-11T15:59:57;2.45;;;1.15;;
13051;SDS011;6592;47.484;9.726;2023-03-11T16:02:26;2.05;;;0.70;;
13051;SDS011;6592;47.484;9.726;2023-03-11T16:04:56;1.50;;;0.80;;
13051;SDS011;6592;47.484;9.726;2023-03-11T16:07:27;1.73;;;0.80;;
13051;SDS011;6592;47.484;9.726;2023-03-11T16:10:05;2.38;;;0.80;;
13051;SDS011;6592;47.484;9.726;2023-03-11T16:12:34;1.95;;;0.90;;